Time;durP1;ratioP1;P1;durP2;ratioP2;P2;SDS_P1;SDS_P2;PMS_P1;PMS_P2;Temp;Humidity;BMP_temperature;BMP_pressure;BME280_temperature;BME280_humidity;BME280_pressure;Samples;Min_cycle;Max_cycle;Signal;HPM_P1;HPM_P2
2021/12/08 00:00:22;;;;;;;11.10;4.82;;;3.40;99.90;;;;;;5070392;28;20045;-81
2021/12/08 00:02:49;;;;;;;9.30;5.50;;;3.30;99.90;;;;;;5066211;28;20045;-81
2021/12/08 00:05:15;;;;;;;8.57;4.55;;;3.20;99.90;;;;;;5068617;28;20044;-81
2021/12/08 00:07:42;;;;;;;10.75;5.65;;;3.20;99.90;;;;;;5063013;28;20052;-81
2021/12/08 00:10:16;;;;;;;7.82;5.13;;;3.20;99.90;;;;;;5055646;28;20059;-81
2021/12/08 00:15:27;;;;;;;8.80;4.53;;;3.10;99.90;;;;;;5064557;28;20064;-81
2021/12/08 00:17:54;;;;;;;10.98;4.88;;;3.00;99.90;;;;;;5061172;28;20043;-82
2021/12/08 00:20:20;;;;;;;10.20;4.07;;;3.00;99.90;;;;;;5064109;28;20056;-81
2021/12/08 00:22:47;;;;;;;13.82;4.63;;;2.80;99.90;;;;;;5065512;28;20051;-82
2021/12/08 00:25:13;;;;;;;12.43;4.50;;;2.80;99.90;;;;;;5066604;28;20041;-81
2021/12/08 00:27:40;;;;;;;15.10;4.25;;;2.80;99.90;;;;;;5065166;28;20055;-81
2021/12/08 00:30:06;;;;;;;21.15;5.57;;;2.70;99.90;;;;;;5061677;28;20048;-82
2021/12/08 00:32:35;;;;;;;9.60;4.50;;;2.70;99.90;;;;;;5068300;28;20048;-81
2021/12/08 00:35:02;;;;;;;8.45;4.00;;;2.60;99.90;;;;;;5063669;28;20067;-83
2021/12/08 00:37:28;;;;;;;13.13;4.82;;;2.60;99.90;;;;;;5058130;28;20127;-82
2021/12/08 00:39:56;;;;;;;6.53;4.20;;;2.60;99.90;;;;;;5058925;28;20044;-81
2021/12/08 00:42:22;;;;;;;7.18;4.10;;;2.60;99.90;;;;;;5062322;28;20136;-82
2021/12/08 00:44:49;;;;;;;16.67;4.30;;;2.70;99.90;;;;;;5065501;28;20059;-81
2021/12/08 00:47:15;;;;;;;5.00;3.67;;;2.60;99.90;;;;;;5059655;28;20132;-82
2021/12/08 00:49:42;;;;;;;7.43;4.57;;;2.70;99.90;;;;;;5054326;28;20045;-81
2021/12/08 00:52:08;;;;;;;11.50;4.30;;;2.70;99.90;;;;;;5062303;28;20065;-82
2021/12/08 00:54:35;;;;;;;13.60;5.20;;;2.70;99.90;;;;;;5060772;28;20057;-82
2021/12/08 00:57:01;;;;;;;7.38;4.18;;;2.70;99.90;;;;;;5062723;28;20045;-82
2021/12/08 00:59:28;;;;;;;8.77;4.40;;;2.70;99.90;;;;;;5063477;28;20502;-81
2021/12/08 01:01:54;;;;;;;11.82;3.92;;;2.70;99.90;;;;;;5058605;28;20511;-81
2021/12/08 01:04:21;;;;;;;5.68;3.90;;;2.80;99.90;;;;;;5061818;28;20048;-81
2021/12/08 01:06:48;;;;;;;12.73;4.05;;;2.80;99.90;;;;;;5064564;28;20052;-81
2021/12/08 01:09:16;;;;;;;6.95;4.72;;;2.80;99.90;;;;;;5057340;28;20040;-82
2021/12/08 01:11:43;;;;;;;13.40;3.95;;;2.70;99.90;;;;;;5063151;28;20056;-81
2021/12/08 01:14:09;;;;;;;10.70;4.63;;;2.70;99.90;;;;;;5062498;28;20049;-81
2021/12/08 01:16:36;;;;;;;10.82;4.05;;;2.70;99.90;;;;;;5064964;28;20064;-82
2021/12/08 01:19:02;;;;;;;6.88;4.25;;;2.80;99.90;;;;;;5053716;28;20048;-82
2021/12/08 01:21:29;;;;;;;8.60;4.22;;;2.80;99.90;;;;;;5057563;28;20056;-82
2021/12/08 01:23:56;;;;;;;11.40;4.55;;;2.70;99.90;;;;;;5057206;28;20044;-81
2021/12/08 01:26:22;;;;;;;7.78;4.20;;;2.70;99.90;;;;;;5069178;28;20044;-81
2021/12/08 01:28:51;;;;;;;6.78;3.92;;;2.70;99.90;;;;;;5055524;28;20136;-81
2021/12/08 01:31:18;;;;;;;6.15;3.47;;;2.80;99.90;;;;;;5068027;28;20098;-81
2021/12/08 01:33:45;;;;;;;8.65;3.83;;;2.80;99.90;;;;;;5065726;28;20049;-81
2021/12/08 01:36:11;;;;;;;7.80;4.25;;;2.70;99.90;;;;;;5071133;28;20059;-81
2021/12/08 01:38:38;;;;;;;6.32;3.55;;;2.70;99.90;;;;;;5069745;28;20431;-81
2021/12/08 01:41:04;;;;;;;9.38;3.83;;;2.70;99.90;;;;;;5060586;28;20499;-82
2021/12/08 01:43:41;;;;;;;6.78;3.47;;;2.70;99.90;;;;;;5064443;28;20471;-82
2021/12/08 01:46:07;;;;;;;7.82;3.95;;;2.60;99.90;;;;;;5061952;28;20056;-82
2021/12/08 01:48:33;;;;;;;7.35;3.55;;;2.60;99.90;;;;;;5072170;28;20055;-82
2021/12/08 01:51:00;;;;;;;9.35;4.25;;;2.60;99.90;;;;;;5058215;28;20056;-82
2021/12/08 01:53:26;;;;;;;9.68;4.32;;;2.60;99.90;;;;;;5057993;28;20052;-82
2021/12/08 01:55:53;;;;;;;8.55;3.88;;;2.60;99.90;;;;;;5058972;28;20079;-82
2021/12/08 01:58:20;;;;;;;6.88;3.65;;;2.70;99.90;;;;;;5060556;28;20052;-82
2021/12/08 02:00:46;;;;;;;7.82;4.05;;;2.60;99.90;;;;;;5060011;28;20443;-82
2021/12/08 02:03:13;;;;;;;15.77;4.15;;;2.60;99.90;;;;;;5069881;28;20044;-81
2021/12/08 02:05:39;;;;;;;10.40;4.28;;;2.70;99.90;;;;;;5065262;28;20061;-81
2021/12/08 02:08:06;;;;;;;9.13;3.03;;;2.70;99.90;;;;;;5068228;28;20055;-80
2021/12/08 02:10:32;;;;;;;8.52;4.05;;;2.60;99.90;;;;;;5065295;28;20048;-81
2021/12/08 02:12:59;;;;;;;5.55;3.45;;;2.60;99.90;;;;;;5066319;28;20048;-81
2021/12/08 02:15:25;;;;;;;5.65;4.05;;;2.70;99.90;;;;;;5063883;28;20056;-81
2021/12/08 02:17:52;;;;;;;11.43;3.78;;;2.70;99.90;;;;;;5068859;28;20048;-80
2021/12/08 02:20:18;;;;;;;4.70;3.05;;;2.70;99.90;;;;;;5071657;28;20060;-81
2021/12/08 02:22:45;;;;;;;10.52;3.63;;;2.80;99.90;;;;;;5064414;28;20045;-80
2021/12/08 02:25:12;;;;;;;10.27;3.97;;;2.70;99.90;;;;;;5067646;28;20048;-81
2021/12/08 02:27:38;;;;;;;4.38;3.65;;;2.70;99.90;;;;;;5064388;28;20056;-81
2021/12/08 02:30:13;;;;;;;8.43;3.85;;;2.70;99.90;;;;;;5067183;28;20059;-81
2021/12/08 02:49:05;;;;;;;4.20;3.65;;;3.00;99.90;;;;;;5075654;28;20472;-80
2021/12/08 02:51:31;;;;;;;7.85;4.10;;;3.00;99.90;;;;;;5063281;28;20495;-80
2021/12/08 02:53:58;;;;;;;5.78;3.83;;;3.00;99.90;;;;;;5062636;28;20045;-81
2021/12/08 02:56:25;;;;;;;7.28;3.78;;;3.00;99.90;;;;;;5069595;28;20051;-81
2021/12/08 02:58:52;;;;;;;8.18;4.22;;;3.00;99.90;;;;;;5067160;28;20056;-80
2021/12/08 03:01:19;;;;;;;7.10;3.50;;;3.00;99.90;;;;;;5059797;28;20057;-82
2021/12/08 03:03:45;;;;;;;7.38;3.20;;;3.00;99.90;;;;;;5065123;28;20048;-80
2021/12/08 03:06:12;;;;;;;5.07;4.22;;;3.00;99.90;;;;;;5066131;28;20139;-81
2021/12/08 03:08:38;;;;;;;6.78;3.75;;;3.00;99.90;;;;;;5069985;28;20055;-81
2021/12/08 03:11:05;;;;;;;7.13;3.92;;;3.00;99.90;;;;;;5066744;28;20060;-81
2021/12/08 03:13:31;;;;;;;11.25;4.43;;;3.00;99.90;;;;;;5065974;28;20454;-81
2021/12/08 03:15:58;;;;;;;6.60;4.32;;;3.10;99.90;;;;;;5058146;28;20067;-81
2021/12/08 03:18:32;;;;;;;6.25;3.42;;;3.10;99.90;;;;;;5069242;28;20044;-81
2021/12/08 03:20:58;;;;;;;4.95;4.07;;;3.10;99.90;;;;;;5067117;28;20468;-81
2021/12/08 03:23:31;;;;;;;6.53;4.07;;;3.20;99.90;;;;;;5055837;28;20408;-81
2021/12/08 03:26:01;;;;;;;10.57;3.95;;;3.20;99.90;;;;;;5063482;28;20044;-81
2021/12/08 03:28:32;;;;;;;7.18;4.70;;;3.30;99.90;;;;;;5067080;28;20064;-81
2021/12/08 03:31:04;;;;;;;8.52;4.32;;;3.20;99.90;;;;;;5054487;28;20120;-81
2021/12/08 03:33:30;;;;;;;9.25;5.07;;;3.20;99.90;;;;;;5057293;28;20473;-81
2021/12/08 03:35:57;;;;;;;9.90;4.72;;;3.20;99.90;;;;;;5061925;28;20083;-80
2021/12/08 03:38:23;;;;;;;6.25;3.97;;;3.30;99.90;;;;;;5063032;28;20061;-81
2021/12/08 03:40:50;;;;;;;6.68;4.43;;;3.30;99.90;;;;;;5062896;28;20484;-81
2021/12/08 03:43:17;;;;;;;7.85;4.53;;;3.20;99.90;;;;;;5063593;28;20621;-81
2021/12/08 03:45:45;;;;;;;7.25;3.90;;;3.20;99.90;;;;;;5064642;28;20400;-81
2021/12/08 03:48:12;;;;;;;9.02;4.57;;;3.30;99.90;;;;;;5068301;28;20047;-81
2021/12/08 03:50:39;;;;;;;7.85;4.15;;;3.20;99.90;;;;;;5061209;28;20057;-81
2021/12/08 03:53:05;;;;;;;7.05;3.88;;;3.20;99.90;;;;;;5058816;28;20044;-81
2021/12/08 03:55:32;;;;;;;10.50;4.90;;;3.20;99.90;;;;;;5063938;28;20049;-82
2021/12/08 03:57:58;;;;;;;4.63;3.47;;;3.30;99.90;;;;;;5062632;28;20051;-79
2021/12/08 04:00:25;;;;;;;10.75;4.10;;;3.30;99.90;;;;;;5061355;28;20049;-81
2021/12/08 04:02:52;;;;;;;9.07;4.90;;;3.30;99.90;;;;;;5086709;28;20056;-81
2021/12/08 04:05:20;;;;;;;8.60;4.70;;;3.40;99.90;;;;;;5066090;28;20064;-81
2021/12/08 04:07:47;;;;;;;9.93;5.28;;;3.40;99.90;;;;;;5062294;28;20135;-81
2021/12/08 04:10:17;;;;;;;10.43;5.30;;;3.40;99.90;;;;;;5066224;28;20041;-80
2021/12/08 04:12:44;;;;;;;9.63;4.95;;;3.40;99.90;;;;;;5069355;28;20044;-82
2021/12/08 04:15:11;;;;;;;9.95;4.47;;;3.40;99.90;;;;;;5066302;28;20052;-81
2021/12/08 04:17:37;;;;;;;8.57;5.75;;;3.50;99.90;;;;;;5069796;28;20060;-82
2021/12/08 04:20:04;;;;;;;10.95;4.53;;;3.50;99.90;;;;;;5063034;28;20044;-81
2021/12/08 04:22:30;;;;;;;9.82;4.93;;;3.50;99.90;;;;;;5056528;28;20048;-82
2021/12/08 04:24:57;;;;;;;7.13;5.13;;;3.50;99.90;;;;;;5058367;28;20044;-82
2021/12/08 04:27:23;;;;;;;8.60;5.22;;;3.50;99.90;;;;;;5060425;28;20057;-81
2021/12/08 04:29:50;;;;;;;6.22;5.63;;;3.60;99.90;;;;;;5058866;28;20400;-81
2021/12/08 04:32:16;;;;;;;6.50;5.28;;;3.60;99.90;;;;;;5058288;28;20056;-81
2021/12/08 04:34:45;;;;;;;12.15;5.22;;;3.60;99.90;;;;;;5069482;28;20056;-81
2021/12/08 04:37:17;;;;;;;9.00;5.53;;;3.60;99.90;;;;;;5062857;28;20041;-82
2021/12/08 04:39:50;;;;;;;11.70;5.82;;;3.50;99.90;;;;;;5060606;28;20077;-82
2021/12/08 04:42:25;;;;;;;6.28;5.60;;;3.60;99.90;;;;;;5054946;28;20484;-82
2021/12/08 04:44:57;;;;;;;7.57;5.93;;;3.60;99.90;;;;;;5052562;28;20071;-82
2021/12/08 04:47:33;;;;;;;7.53;6.05;;;3.60;99.90;;;;;;5064111;28;20670;-82
2021/12/08 04:52:51;;;;;;;7.45;6.22;;;3.70;99.90;;;;;;5030959;28;20488;-82
2021/12/08 05:03:46;;;;;;;8.57;7.15;;;3.80;99.90;;;;;;5064326;28;20068;-82
2021/12/08 05:06:21;;;;;;;12.45;7.45;;;3.90;99.90;;;;;;5060320;28;20460;-82
2021/12/08 05:08:48;;;;;;;13.65;6.15;;;3.80;99.90;;;;;;5066938;28;20040;-83
2021/12/08 05:11:14;;;;;;;12.57;7.30;;;3.80;99.90;;;;;;5068544;28;20080;-82
2021/12/08 05:13:41;;;;;;;11.73;6.45;;;3.90;99.90;;;;;;5065610;28;20054;-82
2021/12/08 05:16:08;;;;;;;13.27;7.05;;;3.90;99.90;;;;;;5065926;28;20052;-81
2021/12/08 05:18:34;;;;;;;8.73;6.70;;;3.90;99.90;;;;;;5064074;28;20044;-83
2021/12/08 05:21:03;;;;;;;9.75;7.20;;;4.00;99.90;;;;;;5062852;28;20057;-83
2021/12/08 05:23:30;;;;;;;7.82;6.43;;;4.00;99.90;;;;;;5064684;28;20045;-83
2021/12/08 05:25:57;;;;;;;11.50;7.18;;;4.00;99.90;;;;;;5055125;28;20110;-82
2021/12/08 05:28:23;;;;;;;11.77;8.30;;;4.00;99.90;;;;;;5060828;28;20071;-82
2021/12/08 05:30:51;;;;;;;10.30;7.65;;;4.10;99.90;;;;;;5056595;28;20048;-82
2021/12/08 05:33:18;;;;;;;9.07;7.53;;;4.10;99.90;;;;;;5051298;28;20393;-82
2021/12/08 05:35:44;;;;;;;8.98;7.60;;;4.10;99.90;;;;;;5066806;28;20491;-82
2021/12/08 05:38:11;;;;;;;12.23;8.93;;;4.10;99.90;;;;;;5069459;28;20512;-80
2021/12/08 05:40:37;;;;;;;8.82;7.93;;;4.10;99.90;;;;;;5067882;28;20056;-82
2021/12/08 05:43:04;;;;;;;19.30;9.00;;;4.20;99.90;;;;;;5067266;28;20049;-82
2021/12/08 05:45:30;;;;;;;9.13;7.22;;;4.30;99.90;;;;;;5066333;28;20076;-82
2021/12/08 05:47:57;;;;;;;10.80;8.50;;;4.30;99.90;;;;;;5061238;28;20047;-82
2021/12/08 05:50:23;;;;;;;16.15;8.88;;;4.30;99.90;;;;;;5055812;28;20049;-82
2021/12/08 05:52:52;;;;;;;11.63;8.10;;;4.30;99.90;;;;;;5057880;28;20055;-82
2021/12/08 05:55:19;;;;;;;10.25;8.18;;;4.20;99.90;;;;;;5058549;28;20060;-82
2021/12/08 05:57:45;;;;;;;16.50;8.20;;;4.20;99.90;;;;;;5065548;28;20063;-81
2021/12/08 06:00:12;;;;;;;13.13;8.68;;;4.30;99.90;;;;;;5063207;28;20048;-82
2021/12/08 06:02:38;;;;;;;10.90;8.52;;;4.20;99.90;;;;;;5067181;28;20049;-82
2021/12/08 06:05:05;;;;;;;11.27;8.80;;;4.20;99.90;;;;;;5061568;28;20052;-83
2021/12/08 06:07:31;;;;;;;14.40;9.05;;;4.20;99.90;;;;;;5063956;28;20070;-83
2021/12/08 06:09:58;;;;;;;8.65;7.20;;;4.20;99.90;;;;;;5062949;28;20769;-83
2021/12/08 06:12:24;;;;;;;10.38;7.82;;;4.20;99.90;;;;;;5066655;28;20087;-82
2021/12/08 06:14:54;;;;;;;11.70;7.97;;;4.20;99.90;;;;;;5059484;28;20395;-81
2021/12/08 06:17:21;;;;;;;15.10;7.37;;;4.20;99.90;;;;;;5066288;28;20061;-83
2021/12/08 06:19:47;;;;;;;13.27;7.57;;;4.20;99.90;;;;;;5063443;28;20041;-83
2021/12/08 06:22:14;;;;;;;12.25;7.43;;;4.20;99.90;;;;;;5056547;28;20447;-79
2021/12/08 06:24:40;;;;;;;10.68;8.00;;;4.20;99.90;;;;;;5061303;28;20059;-79
2021/12/08 06:27:07;;;;;;;9.95;8.05;;;4.20;99.90;;;;;;5068134;28;20071;-78
2021/12/08 06:29:34;;;;;;;15.32;8.10;;;4.20;99.90;;;;;;5061229;28;20424;-80
2021/12/08 06:32:00;;;;;;;8.38;7.15;;;4.20;99.90;;;;;;5066170;28;20052;-80
2021/12/08 06:34:27;;;;;;;11.48;7.55;;;4.10;99.90;;;;;;5062745;28;20052;-80
2021/12/08 06:36:53;;;;;;;14.02;7.70;;;4.10;99.90;;;;;;5068766;28;20052;-80
2021/12/08 06:39:20;;;;;;;13.13;7.32;;;4.10;99.90;;;;;;5069554;28;20055;-79
2021/12/08 06:41:46;;;;;;;7.28;6.60;;;4.10;99.90;;;;;;5066715;28;20045;-80
2021/12/08 06:44:13;;;;;;;9.57;6.93;;;4.10;99.90;;;;;;5060972;28;20052;-80
2021/12/08 06:46:39;;;;;;;13.13;7.82;;;4.00;99.90;;;;;;5053892;28;20649;-80
2021/12/08 06:49:06;;;;;;;9.10;6.05;;;4.00;99.90;;;;;;5055751;28;20412;-80
2021/12/08 06:51:32;;;;;;;15.02;7.68;;;4.10;99.90;;;;;;5057119;28;20056;-80
2021/12/08 06:53:59;;;;;;;14.95;8.05;;;4.10;99.90;;;;;;5067816;28;20480;-80
2021/12/08 06:56:25;;;;;;;8.07;7.13;;;4.20;99.90;;;;;;5061349;28;20045;-80
2021/12/08 06:58:52;;;;;;;8.57;6.88;;;4.20;99.90;;;;;;5066535;28;20110;-80
2021/12/08 07:01:23;;;;;;;11.15;7.53;;;4.30;99.90;;;;;;5059697;28;20048;-80
2021/12/08 07:04:04;;;;;;;11.07;7.80;;;4.30;99.90;;;;;;5067040;28;20561;-80
2021/12/08 07:06:42;;;;;;;9.73;7.05;;;4.30;99.90;;;;;;5057739;28;20068;-80
2021/12/08 07:09:09;;;;;;;8.85;6.28;;;4.30;99.90;;;;;;5066775;28;20138;-80
2021/12/08 07:11:35;;;;;;;9.90;6.53;;;4.30;99.90;;;;;;5069380;28;20064;-80
2021/12/08 07:14:02;;;;;;;8.82;6.95;;;4.40;99.90;;;;;;5064827;28;20045;-81
2021/12/08 07:16:28;;;;;;;9.30;6.82;;;4.40;99.90;;;;;;5066294;28;20049;-80
2021/12/08 07:18:59;;;;;;;14.75;7.63;;;4.30;99.90;;;;;;5066100;28;20404;-80
2021/12/08 07:21:26;;;;;;;9.40;7.40;;;4.30;99.90;;;;;;5064615;28;20098;-80
2021/12/08 07:23:52;;;;;;;14.13;6.65;;;4.20;99.90;;;;;;5069007;28;20053;-80
2021/12/08 07:26:19;;;;;;;11.57;7.47;;;4.20;99.90;;;;;;5058667;28;20061;-80
2021/12/08 07:28:46;;;;;;;12.38;7.97;;;4.20;99.90;;;;;;5054723;28;20045;-81
2021/12/08 07:31:13;;;;;;;7.28;6.55;;;4.20;99.90;;;;;;5059996;28;20044;-81
2021/12/08 07:33:40;;;;;;;12.82;7.40;;;4.20;99.90;;;;;;5064424;28;20044;-81
2021/12/08 07:36:06;;;;;;;9.15;7.28;;;4.20;99.90;;;;;;5066977;28;20052;-81
2021/12/08 07:38:33;;;;;;;9.43;6.80;;;4.20;99.90;;;;;;5068725;28;20040;-80
2021/12/08 07:41:02;;;;;;;9.82;6.22;;;4.10;99.90;;;;;;5064158;28;20048;-80
2021/12/08 07:43:29;;;;;;;11.18;6.75;;;4.10;99.90;;;;;;5062481;28;20095;-80
2021/12/08 07:46:02;;;;;;;9.85;7.13;;;4.10;99.90;;;;;;5053128;28;20053;-81
2021/12/08 07:48:32;;;;;;;7.03;5.88;;;4.20;99.90;;;;;;5054095;28;20049;-79
2021/12/08 07:50:59;;;;;;;12.00;6.82;;;4.20;99.90;;;;;;5066152;28;20548;-80
2021/12/08 07:53:25;;;;;;;7.80;6.35;;;4.20;99.90;;;;;;5065460;28;20412;-80
2021/12/08 07:55:54;;;;;;;13.35;6.22;;;4.20;99.90;;;;;;5065977;28;20381;-81
2021/12/08 07:58:20;;;;;;;13.32;6.30;;;4.20;99.90;;;;;;5060992;28;20045;-81
2021/12/08 08:00:47;;;;;;;10.82;5.82;;;4.20;99.90;;;;;;5057661;28;20052;-81
2021/12/08 08:03:13;;;;;;;9.25;5.05;;;4.20;99.90;;;;;;5066019;28;20037;-81
2021/12/08 08:05:40;;;;;;;10.65;5.40;;;4.30;99.90;;;;;;5067449;28;20048;-81
2021/12/08 08:08:06;;;;;;;7.85;5.35;;;4.30;99.90;;;;;;5069696;28;20430;-81
2021/12/08 08:10:33;;;;;;;8.48;5.47;;;4.30;99.90;;;;;;5062752;28;20414;-81
2021/12/08 08:13:02;;;;;;;6.15;5.55;;;4.30;99.90;;;;;;5062756;28;20377;-81
2021/12/08 08:15:28;;;;;;;11.77;6.32;;;4.30;99.90;;;;;;5063802;28;20086;-80
2021/12/08 08:17:55;;;;;;;7.28;5.47;;;4.30;99.90;;;;;;5069657;28;20045;-81
2021/12/08 08:20:22;;;;;;;11.13;5.13;;;4.40;99.90;;;;;;5060517;28;20119;-80
2021/12/08 08:22:48;;;;;;;11.05;5.57;;;4.40;99.90;;;;;;5056758;28;20049;-81
2021/12/08 08:25:15;;;;;;;8.80;5.32;;;4.40;99.90;;;;;;5060288;28;20041;-81
2021/12/08 08:27:41;;;;;;;7.45;5.47;;;4.50;99.90;;;;;;5059952;28;20059;-81
2021/12/08 08:30:08;;;;;;;7.38;5.07;;;4.50;99.90;;;;;;5060707;28;20060;-81
2021/12/08 08:32:36;;;;;;;8.90;4.65;;;4.50;99.90;;;;;;5055985;28;20037;-80
2021/12/08 08:35:04;;;;;;;12.38;4.90;;;4.50;99.90;;;;;;5067414;28;20102;-81
2021/12/08 08:37:31;;;;;;;8.70;4.32;;;4.50;99.90;;;;;;5064403;28;20052;-81
2021/12/08 08:39:58;;;;;;;6.53;4.85;;;4.50;99.90;;;;;;5059723;28;21041;-80
2021/12/08 08:42:24;;;;;;;11.23;4.97;;;4.60;99.90;;;;;;5065019;28;20102;-81
2021/12/08 08:44:51;;;;;;;7.50;4.07;;;4.60;99.90;;;;;;5066619;28;20048;-81
2021/12/08 08:47:17;;;;;;;13.55;5.35;;;4.60;99.90;;;;;;5064117;28;20052;-80
2021/12/08 08:49:44;;;;;;;7.15;3.58;;;4.60;99.90;;;;;;5051408;28;20060;-79
2021/12/08 08:52:10;;;;;;;10.13;4.63;;;4.60;99.90;;;;;;5058856;28;20052;-80
2021/12/08 08:54:37;;;;;;;5.72;4.03;;;4.60;99.90;;;;;;5061038;28;20056;-80
2021/12/08 08:57:03;;;;;;;6.88;3.40;;;4.70;99.90;;;;;;5064231;28;20056;-80
2021/12/08 08:59:30;;;;;;;10.05;5.35;;;4.70;99.90;;;;;;5067409;28;20056;-80
2021/12/08 09:01:57;;;;;;;8.15;3.95;;;4.70;99.90;;;;;;5060641;28;20098;-81
2021/12/08 09:04:23;;;;;;;4.55;3.67;;;4.80;99.90;;;;;;5061105;28;20060;-80
2021/12/08 09:06:50;;;;;;;8.05;4.07;;;4.80;99.90;;;;;;5053612;28;20059;-79
2021/12/08 09:09:16;;;;;;;12.07;4.03;;;4.90;99.90;;;;;;5065680;28;20059;-80
2021/12/08 09:11:43;;;;;;;7.97;4.10;;;4.90;99.90;;;;;;5056729;28;20056;-81
2021/12/08 09:14:10;;;;;;;7.43;3.17;;;4.90;99.90;;;;;;5061805;28;20131;-80
2021/12/08 09:16:36;;;;;;;11.30;4.28;;;4.90;99.90;;;;;;5060522;28;20049;-80
2021/12/08 09:19:05;;;;;;;11.02;4.00;;;5.00;99.90;;;;;;5057524;28;20080;-81
2021/12/08 09:21:31;;;;;;;7.72;3.72;;;5.00;99.90;;;;;;5055695;28;20052;-82
2021/12/08 09:24:00;;;;;;;6.72;3.35;;;5.10;99.90;;;;;;5061726;28;20656;-80
2021/12/08 09:26:27;;;;;;;10.73;3.58;;;5.10;99.90;;;;;;5060882;28;20048;-81
2021/12/08 09:28:54;;;;;;;10.23;3.90;;;5.10;99.90;;;;;;5061881;28;20054;-81
2021/12/08 09:31:22;;;;;;;8.93;3.22;;;5.20;99.90;;;;;;5061868;28;20048;-81
2021/12/08 09:33:51;;;;;;;4.70;3.10;;;5.20;99.90;;;;;;5057589;28;20072;-82
2021/12/08 09:36:18;;;;;;;7.28;3.58;;;5.30;99.90;;;;;;5064886;28;20123;-81
2021/12/08 09:38:45;;;;;;;8.23;3.58;;;5.40;99.90;;;;;;5060092;28;20076;-81
2021/12/08 09:41:12;;;;;;;15.50;4.57;;;5.50;99.90;;;;;;5058904;28;20049;-81
2021/12/08 09:43:39;;;;;;;8.32;3.65;;;5.60;99.90;;;;;;5062807;28;20118;-81
2021/12/08 09:46:06;;;;;;;5.63;3.40;;;5.70;99.90;;;;;;5063641;28;20040;-82
2021/12/08 09:48:33;;;;;;;8.18;3.03;;;5.90;99.90;;;;;;5061969;28;20134;-82
2021/12/08 09:51:00;;;;;;;15.95;3.50;;;5.90;99.90;;;;;;5058390;28;20041;-82
2021/12/08 09:53:26;;;;;;;7.65;4.05;;;6.00;99.90;;;;;;5069694;28;20053;-82
2021/12/08 09:55:53;;;;;;;12.95;3.58;;;6.10;99.90;;;;;;5064394;28;20049;-82
2021/12/08 09:58:19;;;;;;;8.82;2.58;;;6.00;99.90;;;;;;5067492;28;20052;-82
2021/12/08 10:00:46;;;;;;;4.10;2.45;;;5.90;99.90;;;;;;5062681;28;20056;-81
2021/12/08 10:03:13;;;;;;;11.57;3.33;;;5.90;99.90;;;;;;5066635;28;20056;-81
2021/12/08 10:05:41;;;;;;;4.82;2.65;;;5.80;99.90;;;;;;5061035;28;20406;-82
2021/12/08 10:08:08;;;;;;;15.27;3.35;;;5.80;99.90;;;;;;5067871;28;20053;-81
2021/12/08 10:10:34;;;;;;;15.55;3.03;;;5.70;99.90;;;;;;5063074;28;20044;-81
2021/12/08 10:13:01;;;;;;;13.68;3.30;;;5.70;99.90;;;;;;5059083;28;20049;-81
2021/12/08 10:15:27;;;;;;;7.35;2.60;;;5.70;99.90;;;;;;5062173;28;20060;-82
2021/12/08 10:17:54;;;;;;;10.32;3.72;;;5.70;99.90;;;;;;5063240;28;20064;-81
2021/12/08 10:20:21;;;;;;;10.60;3.75;;;5.70;99.90;;;;;;5065242;28;20052;-82
2021/12/08 10:22:47;;;;;;;7.40;3.67;;;5.70;99.90;;;;;;5063057;28;20051;-80
2021/12/08 10:25:14;;;;;;;12.05;3.72;;;5.70;99.90;;;;;;5057117;28;20041;-81
2021/12/08 10:27:41;;;;;;;14.25;3.20;;;5.80;99.90;;;;;;5065910;28;20067;-82
2021/12/08 10:30:07;;;;;;;9.48;3.25;;;5.80;99.90;;;;;;5065405;28;20667;-81
2021/12/08 10:32:34;;;;;;;4.43;3.05;;;5.90;99.90;;;;;;5059484;28;20055;-81
2021/12/08 10:35:06;;;;;;;12.10;4.03;;;5.90;99.90;;;;;;5060162;28;20472;-81
2021/12/08 10:37:32;;;;;;;12.73;3.88;;;5.90;99.90;;;;;;5060643;28;20072;-81
2021/12/08 10:40:00;;;;;;;11.15;4.40;;;5.90;99.90;;;;;;5069183;28;20047;-81
2021/12/08 10:42:26;;;;;;;6.20;2.95;;;5.90;99.90;;;;;;5062764;28;20447;-82
2021/12/08 10:44:56;;;;;;;15.50;3.75;;;5.90;99.90;;;;;;5060997;28;20492;-81
2021/12/08 10:47:22;;;;;;;11.45;3.53;;;5.90;99.90;;;;;;5060629;28;20067;-81
2021/12/08 10:55:17;;;;;;;8.43;3.28;;;6.00;99.90;;;;;;5065797;28;20120;-81
2021/12/08 10:57:44;;;;;;;7.53;2.85;;;6.10;99.90;;;;;;5064977;28;20499;-82
2021/12/08 11:00:10;;;;;;;12.75;3.40;;;6.20;99.90;;;;;;5061938;28;20183;-81
2021/12/08 11:02:37;;;;;;;11.75;3.45;;;6.40;99.90;;;;;;5058732;28;20052;-82
2021/12/08 11:05:04;;;;;;;15.18;3.67;;;6.50;99.90;;;;;;5058521;28;20060;-80
2021/12/08 11:07:31;;;;;;;10.65;3.00;;;6.50;99.90;;;;;;5062593;28;20053;-80
2021/12/08 11:09:58;;;;;;;9.27;3.53;;;6.60;99.90;;;;;;5060499;28;20238;-80
2021/12/08 11:12:24;;;;;;;7.43;3.53;;;6.60;99.90;;;;;;5053030;28;20053;-81
2021/12/08 11:14:51;;;;;;;9.00;3.08;;;6.60;99.90;;;;;;5060423;28;20067;-81
2021/12/08 11:17:18;;;;;;;8.75;3.60;;;6.60;99.90;;;;;;5067219;28;20036;-81
2021/12/08 11:19:46;;;;;;;10.10;3.75;;;6.60;99.90;;;;;;5061208;28;20056;-81
2021/12/08 11:22:13;;;;;;;8.70;3.40;;;6.60;99.90;;;;;;5061937;28;20044;-83
2021/12/08 11:24:45;;;;;;;5.65;2.88;;;6.60;99.90;;;;;;5066756;28;20522;-83
2021/12/08 11:27:12;;;;;;;5.70;2.55;;;6.70;99.90;;;;;;5069632;28;20047;-84
2021/12/08 11:29:39;;;;;;;12.90;2.85;;;6.70;99.90;;;;;;5071261;28;20057;-85
2021/12/08 11:32:05;;;;;;;6.10;2.72;;;6.70;99.90;;;;;;5070134;28;20045;-84
2021/12/08 11:34:32;;;;;;;7.93;3.22;;;6.70;99.90;;;;;;5070127;28;20434;-83
2021/12/08 11:36:58;;;;;;;6.20;2.30;;;6.70;99.90;;;;;;5057573;28;20056;-82
2021/12/08 11:39:25;;;;;;;8.43;2.88;;;6.70;99.90;;;;;;5056719;28;20464;-82
2021/12/08 11:41:51;;;;;;;4.93;2.30;;;6.80;99.90;;;;;;5058489;28;20484;-82
2021/12/08 11:44:18;;;;;;;6.85;3.63;;;6.70;99.90;;;;;;5054857;28;20304;-84
2021/12/08 11:46:44;;;;;;;6.18;3.50;;;6.70;99.90;;;;;;5056820;28;20052;-86
2021/12/08 11:49:11;;;;;;;6.72;3.20;;;6.70;99.90;;;;;;5065203;28;20045;-85
2021/12/08 11:51:38;;;;;;;8.48;3.63;;;6.70;99.90;;;;;;5061169;28;20040;-82
2021/12/08 11:54:04;;;;;;;11.25;3.10;;;6.60;99.90;;;;;;5066431;28;20059;-82
2021/12/08 11:56:31;;;;;;;8.32;3.10;;;6.60;99.90;;;;;;5060191;28;20052;-85
2021/12/08 11:58:58;;;;;;;13.73;3.50;;;6.70;99.90;;;;;;5057460;28;20040;-81
2021/12/08 12:01:24;;;;;;;5.97;2.88;;;6.60;99.90;;;;;;5060537;28;20546;-80
2021/12/08 12:03:51;;;;;;;8.48;3.42;;;6.50;99.90;;;;;;5057498;28;20045;-80
2021/12/08 12:06:17;;;;;;;5.40;3.67;;;6.50;99.90;;;;;;5060771;28;20053;-80
2021/12/08 12:08:46;;;;;;;13.00;3.53;;;6.50;99.90;;;;;;5059168;28;20044;-80
2021/12/08 12:11:13;;;;;;;6.38;2.78;;;6.50;99.90;;;;;;5067897;28;20127;-79
2021/12/08 12:13:39;;;;;;;5.50;2.55;;;6.40;99.90;;;;;;5061254;28;20179;-80
2021/12/08 12:16:06;;;;;;;3.08;2.15;;;6.50;99.90;;;;;;5056704;28;20059;-80
2021/12/08 12:18:33;;;;;;;7.80;3.22;;;6.40;99.90;;;;;;5054677;28;20057;-80
2021/12/08 12:21:00;;;;;;;10.50;3.20;;;6.30;99.90;;;;;;5058837;28;20047;-81
2021/12/08 12:23:26;;;;;;;7.40;2.67;;;6.30;99.90;;;;;;5056131;28;20053;-80
2021/12/08 12:25:53;;;;;;;17.30;4.00;;;6.30;99.90;;;;;;5060085;28;20072;-81
2021/12/08 12:28:19;;;;;;;7.72;3.05;;;6.20;99.90;;;;;;5054709;28;20451;-80
2021/12/08 12:30:46;;;;;;;9.85;2.60;;;6.20;99.90;;;;;;5066054;28;20407;-78
2021/12/08 12:33:12;;;;;;;16.23;3.08;;;6.20;99.90;;;;;;5064295;28;20048;-81
2021/12/08 12:35:39;;;;;;;8.52;3.33;;;6.20;99.90;;;;;;5062711;28;20045;-80
2021/12/08 12:38:05;;;;;;;5.93;2.90;;;6.20;99.90;;;;;;5064180;28;20055;-80
2021/12/08 12:40:32;;;;;;;7.97;2.70;;;6.20;99.90;;;;;;5064545;28;20048;-80
2021/12/08 12:42:58;;;;;;;6.20;2.67;;;6.20;99.90;;;;;;5063511;28;20049;-86
2021/12/08 12:45:25;;;;;;;11.52;3.83;;;6.30;99.90;;;;;;5064374;28;20133;-80
2021/12/08 12:47:51;;;;;;;7.30;2.78;;;6.20;99.90;;;;;;5065261;28;20501;-80
2021/12/08 12:50:21;;;;;;;14.90;2.63;;;6.20;99.90;;;;;;5058695;28;20132;-80
2021/12/08 12:52:47;;;;;;;7.72;2.83;;;6.20;99.90;;;;;;5063565;28;20045;-80
2021/12/08 12:55:14;;;;;;;7.43;3.13;;;6.10;99.90;;;;;;5060041;28;20049;-80
2021/12/08 12:57:41;;;;;;;8.02;2.88;;;6.20;99.90;;;;;;5068129;28;20117;-80
2021/12/08 13:00:07;;;;;;;8.15;2.78;;;6.20;99.90;;;;;;5064869;28;20051;-80
2021/12/08 13:02:36;;;;;;;11.05;3.75;;;6.20;99.90;;;;;;5061629;28;20056;-80
2021/12/08 13:05:08;;;;;;;7.47;3.15;;;6.20;99.90;;;;;;5066317;28;20048;-80
2021/12/08 13:07:39;;;;;;;6.38;2.78;;;6.20;99.90;;;;;;5057592;28;20045;-80
2021/12/08 13:10:05;;;;;;;7.82;3.30;;;6.10;99.90;;;;;;5080262;28;20056;-80
2021/12/08 13:12:32;;;;;;;9.27;3.00;;;6.10;99.90;;;;;;5060261;28;20041;-80
2021/12/08 13:14:58;;;;;;;7.85;2.92;;;6.10;99.90;;;;;;5060758;28;20388;-80
2021/12/08 13:17:25;;;;;;;8.15;3.45;;;6.20;99.90;;;;;;5064648;28;20055;-80
2021/12/08 13:19:52;;;;;;;4.60;1.95;;;6.20;99.90;;;;;;5063447;28;20056;-80
2021/12/08 13:22:19;;;;;;;8.27;2.90;;;6.10;99.90;;;;;;5064429;28;20044;-80
2021/12/08 13:24:45;;;;;;;9.00;2.90;;;6.10;99.90;;;;;;5067512;28;20052;-80
2021/12/08 13:27:12;;;;;;;9.52;2.85;;;6.00;99.90;;;;;;5066404;28;20053;-79